Time;durP1;ratioP1;P1;durP2;ratioP2;P2;SDS_P1;SDS_P2;PMS_P1;PMS_P2;Temp;Humidity;BMP_temperature;BMP_pressure;BME280_temperature;BME280_humidity;BME280_pressure;Samples;Min_cycle;Max_cycle;Signal;HPM_P1;HPM_P2
2021/08/25 00:01:33;;;;;;;13.73;9.98;;;17.80;90.70;;;;;;4861785;29;20045;-80
2021/08/25 00:03:58;;;;;;;12.00;9.65;;;17.70;90.60;;;;;;4861241;29;20078;-80
2021/08/25 00:06:24;;;;;;;12.00;10.35;;;17.60;90.70;;;;;;4860711;29;20040;-80
2021/08/25 00:08:50;;;;;;;11.73;10.00;;;17.60;90.80;;;;;;4860492;29;20605;-80
2021/08/25 00:11:16;;;;;;;15.05;10.98;;;17.50;90.90;;;;;;4861484;29;20064;-81
2021/08/25 00:13:42;;;;;;;12.85;10.40;;;17.40;91.10;;;;;;4860277;29;20046;-80
2021/08/25 00:16:08;;;;;;;13.05;10.57;;;17.50;91.20;;;;;;4861510;29;20048;-81
2021/08/25 00:18:34;;;;;;;12.43;10.57;;;17.40;91.30;;;;;;4859447;29;20053;-80
2021/08/25 00:20:59;;;;;;;11.82;10.13;;;17.40;91.60;;;;;;4860446;29;20065;-80
2021/08/25 00:23:25;;;;;;;12.70;10.43;;;17.30;91.30;;;;;;4860077;29;20061;-80
2021/08/25 00:25:54;;;;;;;11.38;10.18;;;17.30;91.40;;;;;;4860486;29;20426;-80
2021/08/25 00:28:23;;;;;;;13.80;10.60;;;17.30;91.50;;;;;;4860267;29;20277;-80
2021/08/25 00:30:48;;;;;;;12.68;10.50;;;17.20;91.50;;;;;;4859955;29;20045;-81
2021/08/25 00:33:14;;;;;;;13.00;10.38;;;17.20;91.60;;;;;;4860323;29;20337;-81
2021/08/25 00:35:40;;;;;;;12.52;10.35;;;17.20;91.60;;;;;;4859587;29;20049;-80
2021/08/25 00:38:05;;;;;;;12.90;10.73;;;17.10;91.70;;;;;;4859601;29;20482;-80
2021/08/25 00:40:31;;;;;;;12.15;10.32;;;17.10;91.70;;;;;;4860339;29;20081;-81
2021/08/25 00:43:08;;;;;;;11.73;9.70;;;17.10;91.70;;;;;;4860294;29;20053;-80
2021/08/25 00:45:41;;;;;;;12.88;10.07;;;17.00;91.70;;;;;;4860571;29;20098;-80
2021/08/25 00:48:07;;;;;;;12.63;10.20;;;17.00;91.80;;;;;;4859926;29;20057;-80
2021/08/25 00:50:33;;;;;;;12.30;10.25;;;17.00;91.90;;;;;;4859823;29;20053;-80
2021/08/25 00:52:59;;;;;;;12.55;9.93;;;16.90;91.90;;;;;;4859600;29;20550;-81
2021/08/25 00:55:24;;;;;;;12.52;10.00;;;16.90;91.90;;;;;;4860386;29;20054;-81
2021/08/25 00:57:50;;;;;;;13.63;11.00;;;16.90;91.90;;;;;;4860189;29;20118;-80
2021/08/25 01:00:16;;;;;;;12.93;10.55;;;16.80;91.80;;;;;;4860484;29;20057;-81
2021/08/25 01:02:58;;;;;;;13.80;10.77;;;16.80;91.90;;;;;;4860757;29;20402;-81
2021/08/25 01:05:24;;;;;;;12.73;10.25;;;16.70;91.90;;;;;;4860876;29;20076;-80
2021/08/25 01:07:52;;;;;;;12.30;10.63;;;16.70;92.00;;;;;;4859239;29;20098;-80
2021/08/25 01:10:21;;;;;;;12.48;10.30;;;16.70;92.10;;;;;;4860205;29;20501;-80
2021/08/25 01:12:47;;;;;;;11.88;10.02;;;16.60;92.00;;;;;;4860618;29;20056;-81
2021/08/25 01:15:13;;;;;;;11.98;10.38;;;16.60;92.00;;;;;;4859086;29;20471;-81
2021/08/25 01:17:39;;;;;;;11.50;9.75;;;16.50;92.10;;;;;;4860639;29;20133;-80
2021/08/25 01:20:08;;;;;;;11.38;9.38;;;16.50;92.00;;;;;;4858817;29;20062;-81
2021/08/25 01:22:35;;;;;;;11.73;10.10;;;16.50;91.80;;;;;;4859649;29;20066;-81
2021/08/25 01:25:01;;;;;;;11.15;8.90;;;16.40;91.40;;;;;;4859955;29;20053;-80
2021/08/25 01:27:29;;;;;;;10.55;8.68;;;16.40;91.00;;;;;;4858720;29;20053;-80
2021/08/25 01:29:56;;;;;;;11.13;9.23;;;16.40;90.90;;;;;;4859573;29;20410;-80
2021/08/25 01:32:22;;;;;;;12.85;9.52;;;16.40;91.20;;;;;;4860867;29;20048;-80
2021/08/25 01:34:56;;;;;;;11.73;9.68;;;16.30;91.20;;;;;;4859425;29;20057;-80
2021/08/25 01:37:23;;;;;;;13.23;10.15;;;16.30;91.20;;;;;;4864908;29;20080;-80
2021/08/25 01:39:50;;;;;;;12.75;9.40;;;16.20;91.60;;;;;;4862836;29;20077;-80
2021/08/25 01:42:17;;;;;;;12.02;9.35;;;16.20;91.70;;;;;;4863793;29;20128;-80
2021/08/25 01:44:44;;;;;;;11.68;9.45;;;16.20;91.50;;;;;;4863948;29;20057;-80
2021/08/25 01:47:10;;;;;;;11.45;8.88;;;16.10;91.80;;;;;;4864664;29;20076;-80
2021/08/25 01:49:36;;;;;;;10.68;8.55;;;16.10;91.60;;;;;;4862209;29;20538;-80
2021/08/25 01:52:02;;;;;;;9.85;8.18;;;16.10;91.60;;;;;;4863515;29;20053;-80
2021/08/25 01:54:28;;;;;;;10.55;8.85;;;16.10;91.20;;;;;;4863472;29;20462;-80
2021/08/25 01:56:53;;;;;;;10.50;8.32;;;16.00;91.70;;;;;;4862901;29;20073;-80
2021/08/25 01:59:19;;;;;;;10.07;8.15;;;16.00;91.50;;;;;;4862547;29;20088;-80
2021/08/25 02:01:44;;;;;;;10.15;8.02;;;16.00;91.40;;;;;;4862712;29;20088;-80
2021/08/25 02:04:10;;;;;;;10.63;8.45;;;15.90;91.50;;;;;;4861854;29;20053;-80
2021/08/25 02:06:35;;;;;;;9.55;7.70;;;15.90;91.30;;;;;;4862770;29;20534;-80
2021/08/25 02:09:01;;;;;;;9.95;8.10;;;15.90;91.30;;;;;;4863980;29;20053;-80
2021/08/25 02:11:27;;;;;;;9.95;7.75;;;15.90;91.70;;;;;;4862491;29;20157;-80
2021/08/25 02:13:53;;;;;;;11.70;8.00;;;15.80;91.80;;;;;;4863692;29;20084;-80
2021/08/25 02:16:19;;;;;;;8.82;7.35;;;15.80;91.90;;;;;;4861816;29;20046;-80
2021/08/25 02:18:46;;;;;;;10.35;8.20;;;15.80;91.50;;;;;;4863642;29;20136;-80
2021/08/25 02:21:12;;;;;;;9.88;7.78;;;15.80;91.80;;;;;;4863851;29;20046;-80
2021/08/25 02:23:38;;;;;;;10.95;7.30;;;15.70;92.10;;;;;;4861630;29;20045;-80
2021/08/25 02:26:04;;;;;;;10.25;7.80;;;15.70;92.20;;;;;;4862604;29;20182;-80
2021/08/25 02:28:30;;;;;;;8.85;7.20;;;15.70;92.30;;;;;;4862392;29;20056;-80
2021/08/25 02:30:56;;;;;;;9.40;7.40;;;15.70;92.20;;;;;;4861988;29;20049;-80
2021/08/25 02:33:21;;;;;;;14.13;7.90;;;15.70;92.40;;;;;;4862668;29;20088;-80
2021/08/25 02:35:47;;;;;;;9.18;7.18;;;15.60;92.30;;;;;;4863322;29;20050;-80
2021/08/25 02:38:13;;;;;;;9.15;7.22;;;15.60;92.40;;;;;;4861738;29;20053;-80
2021/08/25 02:40:39;;;;;;;8.80;7.38;;;15.60;92.50;;;;;;4862216;29;20049;-80
2021/08/25 02:43:05;;;;;;;9.15;7.30;;;15.60;92.60;;;;;;4862333;29;20048;-80
2021/08/25 02:45:31;;;;;;;8.93;6.85;;;15.60;92.40;;;;;;4860944;29;20132;-80
2021/08/25 02:47:56;;;;;;;10.02;7.22;;;15.60;92.20;;;;;;4862151;29;20137;-80
2021/08/25 02:50:22;;;;;;;9.00;6.93;;;15.60;92.20;;;;;;4862237;29;20045;-80
2021/08/25 02:52:47;;;;;;;11.02;7.18;;;15.50;92.20;;;;;;4861489;29;20073;-80
2021/08/25 02:55:13;;;;;;;8.20;6.53;;;15.50;92.30;;;;;;4862080;29;20063;-80
2021/08/25 02:57:38;;;;;;;8.50;6.60;;;15.50;92.20;;;;;;4861611;29;20045;-80
2021/08/25 03:00:05;;;;;;;7.97;6.68;;;15.50;92.00;;;;;;4861159;29;20056;-80
2021/08/25 03:02:31;;;;;;;8.32;6.25;;;15.50;92.30;;;;;;4861096;29;20050;-80
2021/08/25 03:04:56;;;;;;;8.52;6.20;;;15.50;92.40;;;;;;4863380;29;20049;-80
2021/08/25 03:07:22;;;;;;;9.25;6.03;;;15.50;92.40;;;;;;4861693;29;20052;-80
2021/08/25 03:09:47;;;;;;;8.02;6.28;;;15.40;92.30;;;;;;4861635;29;20045;-80
2021/08/25 03:12:13;;;;;;;8.48;6.78;;;15.50;92.50;;;;;;4862067;29;20439;-80
2021/08/25 03:14:38;;;;;;;7.97;6.30;;;15.40;92.60;;;;;;4860873;29;20545;-80
2021/08/25 03:17:04;;;;;;;7.20;5.97;;;15.40;92.60;;;;;;4863261;29;20050;-79
2021/08/25 03:19:29;;;;;;;7.32;5.70;;;15.40;92.60;;;;;;4862075;29;20076;-80
2021/08/25 03:21:55;;;;;;;6.85;5.95;;;15.40;92.60;;;;;;4862270;29;20060;-80
2021/08/25 03:24:21;;;;;;;7.20;6.13;;;15.40;92.60;;;;;;4861454;29;20052;-80
2021/08/25 03:26:47;;;;;;;7.18;6.05;;;15.40;92.70;;;;;;4860799;29;20053;-80
2021/08/25 03:29:12;;;;;;;7.30;5.35;;;15.40;92.80;;;;;;4861764;29;20056;-80
2021/08/25 03:31:38;;;;;;;7.35;5.60;;;15.40;92.80;;;;;;4861684;29;20045;-80
2021/08/25 03:34:03;;;;;;;7.05;5.32;;;15.40;93.10;;;;;;4861017;29;20042;-80
2021/08/25 03:36:29;;;;;;;6.80;5.43;;;15.40;92.80;;;;;;4861721;29;20049;-80
2021/08/25 03:38:54;;;;;;;6.60;5.28;;;15.40;92.70;;;;;;4860891;29;20045;-80
2021/08/25 03:41:20;;;;;;;6.57;5.10;;;15.40;92.70;;;;;;4861068;29;20406;-80
2021/08/25 03:43:45;;;;;;;5.90;5.10;;;15.40;92.80;;;;;;4862344;29;20074;-80
2021/08/25 03:46:13;;;;;;;6.20;5.13;;;15.40;93.10;;;;;;4862254;29;20061;-80
2021/08/25 03:48:39;;;;;;;6.15;4.88;;;15.30;92.70;;;;;;4861141;29;20771;-80
2021/08/25 03:51:04;;;;;;;5.95;4.60;;;15.40;92.60;;;;;;4861616;29;20046;-80
2021/08/25 03:53:30;;;;;;;6.93;5.07;;;15.30;92.60;;;;;;4861534;29;20049;-80
2021/08/25 03:55:55;;;;;;;6.15;5.00;;;15.30;92.60;;;;;;4860379;29;20075;-80
2021/08/25 03:58:21;;;;;;;6.78;4.70;;;15.30;92.70;;;;;;4860210;29;20403;-80
2021/08/25 04:00:46;;;;;;;5.90;4.90;;;15.30;92.70;;;;;;4860430;29;20406;-80
2021/08/25 04:03:12;;;;;;;7.90;5.00;;;15.30;92.60;;;;;;4859893;29;20049;-80
2021/08/25 04:05:38;;;;;;;5.97;4.97;;;15.30;92.60;;;;;;4861709;29;20050;-80
2021/08/25 04:08:03;;;;;;;4.95;4.20;;;15.30;92.70;;;;;;4861984;29;20045;-80
2021/08/25 04:10:29;;;;;;;6.88;4.28;;;15.30;92.60;;;;;;4859949;29;20053;-80
2021/08/25 04:12:56;;;;;;;5.43;4.10;;;15.30;92.50;;;;;;4860699;29;20364;-80
2021/08/25 04:15:22;;;;;;;5.82;4.40;;;15.30;92.40;;;;;;4860697;29;20403;-80
2021/08/25 04:17:47;;;;;;;6.00;4.20;;;15.20;92.50;;;;;;4859889;29;20074;-80
2021/08/25 04:20:13;;;;;;;4.95;3.88;;;15.20;92.50;;;;;;4861372;29;20061;-80
2021/08/25 04:22:39;;;;;;;6.00;4.10;;;15.20;92.40;;;;;;4860570;29;20061;-80
2021/08/25 04:25:05;;;;;;;5.20;3.95;;;15.20;92.40;;;;;;4860304;29;20421;-80
2021/08/25 04:27:30;;;;;;;6.25;4.05;;;15.20;92.50;;;;;;4860267;29;20125;-80
2021/08/25 04:29:56;;;;;;;5.07;4.00;;;15.20;92.60;;;;;;4859914;29;20140;-80
2021/08/25 04:32:21;;;;;;;6.10;4.10;;;15.10;92.60;;;;;;4860570;29;20060;-80
2021/08/25 04:34:47;;;;;;;5.00;3.88;;;15.10;92.60;;;;;;4861446;29;20050;-80
2021/08/25 04:37:12;;;;;;;4.93;4.00;;;15.10;92.60;;;;;;4859607;29;20046;-80
2021/08/25 04:39:38;;;;;;;4.32;3.50;;;15.10;92.70;;;;;;4861301;29;20056;-80
2021/08/25 04:42:03;;;;;;;5.22;3.83;;;15.10;92.60;;;;;;4861450;29;20049;-80
2021/08/25 04:44:29;;;;;;;5.75;3.60;;;15.10;92.70;;;;;;4860756;29;20120;-80
2021/08/25 04:46:54;;;;;;;5.43;3.72;;;15.10;92.70;;;;;;4861171;29;20037;-80
2021/08/25 04:49:20;;;;;;;4.70;3.65;;;15.10;92.80;;;;;;4860834;29;20045;-80
2021/08/25 04:51:46;;;;;;;5.50;3.65;;;15.10;92.80;;;;;;4859402;29;20045;-80
2021/08/25 04:54:11;;;;;;;5.32;3.80;;;15.10;92.80;;;;;;4860064;29;20497;-80
2021/08/25 04:56:37;;;;;;;4.70;3.53;;;15.00;92.90;;;;;;4859423;29;20049;-80
2021/08/25 04:59:02;;;;;;;4.60;3.60;;;15.00;92.90;;;;;;4859350;29;20132;-80
2021/08/25 05:01:28;;;;;;;4.13;3.13;;;15.00;92.90;;;;;;4859638;29;20045;-80
2021/08/25 05:03:53;;;;;;;4.97;3.35;;;15.00;92.90;;;;;;4860900;29;20402;-80
2021/08/25 05:06:19;;;;;;;4.50;3.10;;;15.00;93.00;;;;;;4859172;29;20491;-80
2021/08/25 05:08:45;;;;;;;4.88;3.00;;;15.00;92.90;;;;;;4852060;29;20057;-79
2021/08/25 05:11:11;;;;;;;3.85;2.75;;;15.00;92.90;;;;;;4851196;29;20106;-80
2021/08/25 05:13:38;;;;;;;4.43;3.22;;;15.00;92.90;;;;;;4880766;29;20041;-80
2021/08/25 05:16:09;;;;;;;3.90;2.70;;;15.00;92.90;;;;;;4856976;29;20084;-80
2021/08/25 05:18:35;;;;;;;4.65;3.00;;;14.90;92.80;;;;;;4890137;29;20053;-81
2021/08/25 05:21:01;;;;;;;4.28;2.95;;;14.90;92.70;;;;;;4860297;29;20558;-80
2021/08/25 05:23:26;;;;;;;4.70;2.80;;;14.90;92.70;;;;;;4860181;29;20443;-81
2021/08/25 05:25:52;;;;;;;4.05;2.80;;;14.90;92.70;;;;;;4860817;29;20045;-81
2021/08/25 05:28:17;;;;;;;4.22;2.80;;;14.90;92.70;;;;;;4859124;29;20579;-81
2021/08/25 05:30:43;;;;;;;4.07;3.17;;;14.90;92.70;;;;;;4860879;29;20064;-81
2021/08/25 05:33:08;;;;;;;3.95;2.85;;;14.90;92.80;;;;;;4859604;29;20041;-80
2021/08/25 05:35:34;;;;;;;3.55;2.50;;;14.90;92.80;;;;;;4860421;29;20125;-81
2021/08/25 05:37:59;;;;;;;3.85;2.60;;;14.80;92.70;;;;;;4859721;29;20430;-81
2021/08/25 05:40:25;;;;;;;3.38;2.25;;;14.80;92.60;;;;;;4850543;29;20554;-81
2021/08/25 05:42:50;;;;;;;3.70;2.40;;;14.80;92.60;;;;;;4856307;29;20060;-81
2021/08/25 05:45:16;;;;;;;3.85;2.17;;;14.80;92.70;;;;;;4860858;29;20083;-85
2021/08/25 05:47:42;;;;;;;3.28;2.10;;;14.80;92.60;;;;;;4860361;29;20046;-86
2021/08/25 05:50:10;;;;;;;3.05;2.10;;;14.80;92.60;;;;;;4860402;29;20045;-85
2021/08/25 05:52:36;;;;;;;2.92;2.05;;;14.80;92.60;;;;;;4860968;29;20068;-86
2021/08/25 05:55:03;;;;;;;3.45;1.90;;;14.80;92.60;;;;;;4859532;29;20053;-81
2021/08/25 05:57:29;;;;;;;3.03;2.00;;;14.80;92.60;;;;;;4860273;29;20046;-80
2021/08/25 05:59:55;;;;;;;2.90;2.05;;;14.80;92.70;;;;;;4858498;29;20076;-80
2021/08/25 06:02:21;;;;;;;3.38;1.92;;;14.70;92.60;;;;;;4857957;29;20165;-79
2021/08/25 06:04:47;;;;;;;3.05;2.00;;;14.80;92.60;;;;;;4859076;29;20074;-79
2021/08/25 06:07:12;;;;;;;2.92;2.03;;;14.70;92.70;;;;;;4859247;29;20110;-79
2021/08/25 06:09:38;;;;;;;3.33;1.90;;;14.70;92.70;;;;;;4857379;29;20053;-78
2021/08/25 06:12:04;;;;;;;2.35;1.65;;;14.70;92.80;;;;;;4855274;29;20073;-79
2021/08/25 06:14:30;;;;;;;3.10;1.90;;;14.80;92.90;;;;;;4860553;29;20546;-79
2021/08/25 06:16:57;;;;;;;3.08;1.77;;;14.80;92.80;;;;;;4857750;29;20140;-79
2021/08/25 06:19:23;;;;;;;2.45;1.77;;;14.80;92.80;;;;;;4858900;29;20054;-79
2021/08/25 06:21:49;;;;;;;2.90;1.50;;;14.80;92.70;;;;;;4860765;29;20084;-79
2021/08/25 06:24:15;;;;;;;3.05;1.80;;;14.90;92.80;;;;;;4857819;29;20077;-79
2021/08/25 06:26:41;;;;;;;3.22;1.98;;;14.90;92.60;;;;;;4882849;29;20064;-79
2021/08/25 06:29:07;;;;;;;2.83;1.65;;;15.00;92.80;;;;;;4861109;29;20398;-79
2021/08/25 06:31:33;;;;;;;4.15;1.58;;;15.10;92.50;;;;;;4861209;29;20085;-79
2021/08/25 06:33:59;;;;;;;6.07;2.50;;;15.10;92.50;;;;;;4862259;29;20076;-78
2021/08/25 06:36:25;;;;;;;4.53;2.15;;;15.20;92.70;;;;;;4863686;29;20046;-80
2021/08/25 06:38:50;;;;;;;4.13;2.10;;;15.20;92.50;;;;;;4862714;29;20068;-80
2021/08/25 06:41:16;;;;;;;4.15;2.15;;;15.30;92.40;;;;;;4861721;29;20517;-79
2021/08/25 06:43:42;;;;;;;4.38;2.13;;;15.40;92.40;;;;;;4859611;29;20041;-79
2021/08/25 06:46:07;;;;;;;4.30;1.98;;;15.40;92.20;;;;;;4860800;29;20105;-79
2021/08/25 06:48:33;;;;;;;5.32;2.40;;;15.50;92.10;;;;;;4860173;29;20442;-78
2021/08/25 06:50:59;;;;;;;5.38;2.63;;;15.50;92.20;;;;;;4858667;29;20050;-79
2021/08/25 06:53:24;;;;;;;4.22;1.92;;;15.60;92.50;;;;;;4862027;29;20072;-80
2021/08/25 06:55:50;;;;;;;6.13;3.20;;;15.70;92.20;;;;;;4863188;29;20100;-77
2021/08/25 06:58:15;;;;;;;6.32;3.00;;;15.70;92.50;;;;;;4860685;29;20081;-79
2021/08/25 07:00:41;;;;;;;3.70;1.80;;;15.80;92.70;;;;;;4881531;29;20128;-79
2021/08/25 07:03:06;;;;;;;5.07;1.90;;;15.90;92.20;;;;;;4860632;29;20139;-79
2021/08/25 07:05:32;;;;;;;5.32;2.35;;;15.90;92.00;;;;;;4852626;29;20081;-79
2021/08/25 07:08:00;;;;;;;4.75;2.13;;;16.00;92.20;;;;;;4863287;29;20041;-80
2021/08/25 07:10:25;;;;;;;6.95;2.85;;;16.00;92.10;;;;;;4860921;29;20049;-80
2021/08/25 07:12:51;;;;;;;7.35;2.38;;;16.10;92.50;;;;;;4860930;29;20053;-80
2021/08/25 07:15:17;;;;;;;4.95;2.63;;;16.20;92.40;;;;;;4862967;29;20042;-79
2021/08/25 07:17:44;;;;;;;5.30;2.53;;;16.30;92.50;;;;;;4860414;29;20038;-79
2021/08/25 07:20:12;;;;;;;8.13;3.10;;;16.40;92.60;;;;;;4860466;29;20068;-80
2021/08/25 07:22:37;;;;;;;4.95;2.50;;;16.50;92.70;;;;;;4860950;29;20573;-80
2021/08/25 07:25:05;;;;;;;5.72;2.60;;;16.60;92.50;;;;;;4861180;29;20083;-80
2021/08/25 07:27:30;;;;;;;7.28;3.20;;;16.60;92.60;;;;;;4860464;29;20422;-80
2021/08/25 07:29:56;;;;;;;4.95;2.28;;;16.70;92.60;;;;;;4861189;29;20045;-79
2021/08/25 07:32:21;;;;;;;5.82;2.33;;;16.80;92.30;;;;;;4861244;29;20053;-79
2021/08/25 07:34:47;;;;;;;5.93;2.45;;;16.80;92.10;;;;;;4859231;29;20064;-78
2021/08/25 07:37:12;;;;;;;6.75;2.65;;;16.90;92.00;;;;;;4858128;29;20066;-79
2021/08/25 07:39:38;;;;;;;5.00;2.55;;;17.00;92.00;;;;;;4860496;29;20050;-79
2021/08/25 07:42:03;;;;;;;6.80;2.15;;;17.00;92.10;;;;;;4860311;29;20052;-79
2021/08/25 07:44:29;;;;;;;8.52;2.97;;;17.20;91.90;;;;;;4862417;29;20060;-79
2021/08/25 07:46:55;;;;;;;3.92;2.25;;;17.30;91.80;;;;;;4860064;29;20053;-80
2021/08/25 07:49:24;;;;;;;4.18;2.10;;;17.30;91.70;;;;;;4849032;29;20050;-80
2021/08/25 07:51:50;;;;;;;6.15;2.75;;;17.40;91.60;;;;;;4842274;29;20049;-79
2021/08/25 07:54:15;;;;;;;8.85;3.30;;;17.50;91.50;;;;;;4841924;29;20145;-79
2021/08/25 07:56:41;;;;;;;5.95;2.53;;;17.60;91.40;;;;;;4841429;29;20057;-79
2021/08/25 07:59:07;;;;;;;7.85;2.58;;;17.70;91.40;;;;;;4841193;29;20054;-79
2021/08/25 08:01:33;;;;;;;7.72;2.22;;;17.80;91.20;;;;;;4841300;29;20057;-79
2021/08/25 08:03:59;;;;;;;5.15;1.95;;;17.90;91.00;;;;;;4849158;29;20053;-77
2021/08/25 08:06:25;;;;;;;5.20;2.33;;;17.90;91.00;;;;;;4860211;29;20089;-79
2021/08/25 08:08:51;;;;;;;5.95;2.15;;;18.00;90.70;;;;;;4857701;29;20077;-79
2021/08/25 08:11:17;;;;;;;5.30;2.10;;;18.10;90.70;;;;;;4859151;29;20050;-79
2021/08/25 08:13:42;;;;;;;4.95;1.80;;;18.20;90.50;;;;;;4860254;29;20100;-79
2021/08/25 08:16:09;;;;;;;4.65;2.00;;;18.20;90.50;;;;;;4876650;29;20052;-78
2021/08/25 08:18:38;;;;;;;5.32;2.03;;;18.30;90.50;;;;;;4859483;29;20066;-77
2021/08/25 08:21:04;;;;;;;5.35;1.90;;;18.40;90.20;;;;;;4859772;29;20076;-78
2021/08/25 08:23:31;;;;;;;5.22;1.85;;;18.50;89.80;;;;;;4859761;29;20057;-78
2021/08/25 08:25:57;;;;;;;5.38;1.70;;;18.60;89.90;;;;;;4860124;29;20073;-80
2021/08/25 08:28:23;;;;;;;7.30;1.80;;;18.60;89.10;;;;;;4860634;29;20136;-80
2021/08/25 08:30:48;;;;;;;5.03;1.67;;;18.70;88.90;;;;;;4860811;29;20546;-81
2021/08/25 08:33:14;;;;;;;5.55;1.80;;;18.70;89.20;;;;;;4860169;29;20050;-80
2021/08/25 08:35:40;;;;;;;4.72;1.92;;;18.70;89.30;;;;;;4859942;29;20151;-81
2021/08/25 08:38:06;;;;;;;5.95;2.20;;;18.80;89.20;;;;;;4858905;29;20058;-81
2021/08/25 08:40:35;;;;;;;6.10;1.77;;;18.90;89.40;;;;;;4860882;29;20045;-81
2021/08/25 08:43:08;;;;;;;6.13;1.77;;;18.90;89.10;;;;;;4844126;29;20066;-81
2021/08/25 08:45:39;;;;;;;4.88;1.80;;;19.00;87.70;;;;;;4842220;29;20394;-81
2021/08/25 08:48:08;;;;;;;6.20;1.90;;;19.10;87.90;;;;;;4841538;29;20042;-81
2021/08/25 08:50:35;;;;;;;5.95;2.10;;;19.10;88.10;;;;;;4840415;29;20099;-81
2021/08/25 08:53:01;;;;;;;5.70;1.90;;;19.20;87.70;;;;;;4841492;29;20053;-80
2021/08/25 08:55:26;;;;;;;4.00;1.70;;;19.20;87.10;;;;;;4841463;29;20102;-81
2021/08/25 08:57:52;;;;;;;5.28;1.70;;;19.20;87.20;;;;;;4860934;29;20081;-80
2021/08/25 09:00:18;;;;;;;4.97;1.75;;;19.30;87.50;;;;;;4877907;29;20053;-80
2021/08/25 09:02:45;;;;;;;5.88;1.80;;;19.30;88.00;;;;;;4878351;29;20045;-80
2021/08/25 09:05:34;;;;;;;5.28;1.60;;;19.40;86.90;;;;;;4878828;29;20100;-80
2021/08/25 09:08:01;;;;;;;4.20;1.75;;;19.40;86.70;;;;;;4878589;29;20092;-81
2021/08/25 09:10:45;;;;;;;3.50;1.50;;;19.50;86.80;;;;;;4860370;29;20053;-81
2021/08/25 09:13:12;;;;;;;3.25;1.23;;;19.50;85.30;;;;;;4859122;29;20110;-80
2021/08/25 09:15:41;;;;;;;3.78;1.08;;;19.60;85.40;;;;;;4859633;29;20052;-81
2021/08/25 09:18:15;;;;;;;4.20;1.35;;;19.70;84.60;;;;;;4859704;29;20121;-81
2021/08/25 09:20:49;;;;;;;3.38;1.48;;;19.80;85.00;;;;;;4859484;29;20172;-80
2021/08/25 09:23:26;;;;;;;3.05;1.33;;;19.90;85.50;;;;;;4859168;29;20082;-81
2021/08/25 09:26:01;;;;;;;4.63;1.60;;;20.00;84.00;;;;;;4857817;29;20061;-80
2021/08/25 09:28:47;;;;;;;4.05;1.30;;;20.00;82.30;;;;;;4857259;29;20136;-80
2021/08/25 09:31:12;;;;;;;3.35;1.33;;;20.10;82.10;;;;;;4859568;29;20499;-80
2021/08/25 09:33:44;;;;;;;4.20;1.13;;;20.20;82.30;;;;;;4859703;29;20106;-81
2021/08/25 09:36:12;;;;;;;3.65;1.00;;;20.30;82.30;;;;;;4860004;29;20089;-80
2021/08/25 09:38:40;;;;;;;4.68;1.20;;;20.30;82.30;;;;;;4857822;29;20080;-80
2021/08/25 09:41:08;;;;;;;5.15;1.48;;;20.40;82.20;;;;;;4857529;29;20042;-81
2021/08/25 09:43:45;;;;;;;5.05;1.10;;;20.40;81.30;;;;;;4858120;29;20049;-80
2021/08/25 09:46:25;;;;;;;3.38;1.20;;;20.50;81.80;;;;;;4857918;29;20103;-82
2021/08/25 09:48:53;;;;;;;2.15;0.80;;;20.50;82.30;;;;;;4854453;29;20060;-81
2021/08/25 09:51:21;;;;;;;2.45;0.80;;;20.50;82.30;;;;;;4860446;29;20088;-82
2021/08/25 09:53:50;;;;;;;3.22;0.82;;;20.60;82.10;;;;;;4857339;29;20060;-79
2021/08/25 09:56:32;;;;;;;2.33;0.60;;;20.60;81.40;;;;;;4858414;29;20053;-80
2021/08/25 09:58:58;;;;;;;2.17;0.70;;;20.60;82.30;;;;;;4862581;29;20053;-80
2021/08/25 10:01:24;;;;;;;1.55;0.60;;;20.60;81.70;;;;;;4858841;29;20033;-80
2021/08/25 10:03:50;;;;;;;2.58;0.90;;;20.60;80.90;;;;;;4859146;29;20049;-80
2021/08/25 10:06:21;;;;;;;1.77;0.73;;;20.60;82.40;;;;;;4863352;29;20550;-81
2021/08/25 10:08:47;;;;;;;3.65;0.88;;;20.60;81.20;;;;;;4863150;29;20045;-81
2021/08/25 10:11:14;;;;;;;3.60;0.90;;;20.60;81.20;;;;;;4861826;29;20041;-81
2021/08/25 10:13:40;;;;;;;2.35;0.60;;;20.70;81.20;;;;;;4862526;29;20077;-81
2021/08/25 10:16:11;;;;;;;1.63;0.60;;;20.70;81.50;;;;;;4862164;29;20402;-80
2021/08/25 10:18:42;;;;;;;1.77;0.60;;;20.80;80.30;;;;;;4861348;29;20073;-79
2021/08/25 10:21:41;;;;;;;1.85;0.60;;;20.80;79.30;;;;;;4862225;29;20075;-81
2021/08/25 10:24:07;;;;;;;1.05;0.55;;;20.80;76.60;;;;;;4847119;29;20046;-81
2021/08/25 10:26:58;;;;;;;1.10;0.40;;;20.80;78.20;;;;;;4863394;29;20550;-80
2021/08/25 10:29:24;;;;;;;3.80;0.50;;;20.70;78.30;;;;;;4861242;29;20049;-90
2021/08/25 10:31:50;;;;;;;4.10;0.50;;;20.80;77.70;;;;;;4864984;29;20136;-92
2021/08/25 10:34:17;;;;;;;2.53;0.40;;;20.80;77.70;;;;;;4863765;29;20132;-92
2021/08/25 10:36:43;;;;;;;3.28;0.43;;;20.80;77.00;;;;;;4879192;29;20398;-94
2021/08/25 10:39:31;;;;;;;2.45;0.47;;;20.80;77.40;;;;;;4883509;29;20053;-93
2021/08/25 10:41:57;;;;;;;1.58;0.38;;;20.90;79.10;;;;;;4889173;29;20528;-91
2021/08/25 10:44:38;;;;;;;1.23;0.38;;;20.90;79.20;;;;;;4884797;29;20104;-95
2021/08/25 10:47:09;;;;;;;2.97;0.57;;;21.00;80.50;;;;;;4884431;29;20057;-95
2021/08/25 10:49:42;;;;;;;1.42;0.50;;;21.00;79.70;;;;;;4883947;29;20099;-95
2021/08/25 10:52:14;;;;;;;1.75;0.50;;;21.10;80.50;;;;;;4882776;29;20048;-95
2021/08/25 10:54:50;;;;;;;1.52;0.50;;;21.10;80.90;;;;;;4868911;29;20054;-80
2021/08/25 10:57:20;;;;;;;1.55;0.30;;;21.20;80.70;;;;;;4876358;29;20093;-81
2021/08/25 10:59:46;;;;;;;1.15;0.25;;;21.20;77.60;;;;;;4861541;29;20064;-82
2021/08/25 11:02:12;;;;;;;0.80;0.30;;;21.20;77.30;;;;;;4861659;29;20478;-81
2021/08/25 11:04:38;;;;;;;1.05;0.30;;;21.10;78.20;;;;;;4861657;29;20066;-81
2021/08/25 11:07:10;;;;;;;1.48;0.30;;;21.10;78.40;;;;;;4861085;29;20050;-81
2021/08/25 11:09:36;;;;;;;0.40;0.20;;;21.10;77.70;;;;;;4862538;29;20132;-80
2021/08/25 11:12:09;;;;;;;0.77;0.40;;;21.10;78.10;;;;;;4860609;29;20049;-81
2021/08/25 11:14:47;;;;;;;0.95;0.30;;;21.10;77.00;;;;;;4862639;29;20498;-83
2021/08/25 11:17:27;;;;;;;1.83;0.50;;;21.10;76.60;;;;;;4855610;29;20045;-82
2021/08/25 11:19:57;;;;;;;0.85;0.20;;;21.00;77.00;;;;;;4855140;29;20152;-82
2021/08/25 11:22:39;;;;;;;2.08;0.50;;;21.10;76.50;;;;;;4864474;29;20049;-83
2021/08/25 11:25:09;;;;;;;1.52;0.45;;;21.10;77.90;;;;;;4879236;29;20064;-82
2021/08/25 11:27:39;;;;;;;0.77;0.40;;;21.10;78.50;;;;;;4879609;29;20060;-82
2021/08/25 11:30:08;;;;;;;2.30;0.40;;;21.20;79.90;;;;;;4872321;29;20045;-83
2021/08/25 11:32:42;;;;;;;2.22;0.50;;;21.20;79.30;;;;;;4859876;29;20050;-82
2021/08/25 11:35:09;;;;;;;2.67;0.60;;;21.30;77.40;;;;;;4861224;29;20379;-82
2021/08/25 11:37:35;;;;;;;1.55;0.50;;;21.30;76.30;;;;;;4861829;29;20394;-81
2021/08/25 11:40:04;;;;;;;2.28;0.60;;;21.30;75.60;;;;;;4853645;29;20049;-82
2021/08/25 11:42:32;;;;;;;1.67;0.70;;;21.30;75.40;;;;;;4860011;29;20056;-82
2021/08/25 11:44:58;;;;;;;1.58;0.60;;;21.30;75.90;;;;;;4860682;29;20068;-81
2021/08/25 11:47:24;;;;;;;1.27;0.40;;;21.30;76.20;;;;;;4859520;29;20045;-81
2021/08/25 11:49:56;;;;;;;2.05;0.55;;;21.30;76.40;;;;;;4861807;29;20041;-82
2021/08/25 11:52:33;;;;;;;0.77;0.43;;;21.30;77.40;;;;;;4860770;29;20049;-80
2021/08/25 11:55:03;;;;;;;1.70;0.63;;;21.30;77.20;;;;;;4857817;29;20045;-80
2021/08/25 11:57:44;;;;;;;2.03;0.60;;;21.30;77.70;;;;;;4856277;29;20463;-81
2021/08/25 12:00:11;;;;;;;1.27;0.40;;;21.40;77.10;;;;;;4860029;29;20053;-82
2021/08/25 12:02:57;;;;;;;2.17;0.60;;;21.40;76.60;;;;;;4860827;29;20081;-81
2021/08/25 12:05:31;;;;;;;1.50;0.43;;;21.40;77.50;;;;;;4860627;29;20359;-81
2021/08/25 12:07:58;;;;;;;2.00;0.60;;;21.50;77.10;;;;;;4860460;29;20070;-82
2021/08/25 12:10:24;;;;;;;1.38;0.40;;;21.50;78.00;;;;;;4861941;29;20438;-81
2021/08/25 12:12:50;;;;;;;2.65;0.60;;;21.40;78.70;;;;;;4874272;29;20671;-82
2021/08/25 12:15:16;;;;;;;1.60;0.60;;;21.50;77.90;;;;;;4853529;29;20057;-81
2021/08/25 12:17:58;;;;;;;1.58;0.50;;;21.50;78.00;;;;;;4842201;29;20042;-81
2021/08/25 12:20:34;;;;;;;2.20;0.70;;;21.50;79.00;;;;;;4856885;29;20132;-81
2021/08/25 12:23:05;;;;;;;1.60;0.52;;;21.50;80.20;;;;;;4859784;29;20057;-81
2021/08/25 12:25:45;;;;;;;2.10;0.50;;;21.50;81.70;;;;;;4861808;29;20137;-82
2021/08/25 12:28:34;;;;;;;1.35;0.50;;;21.60;81.70;;;;;;4859195;29;20114;-81
2021/08/25 12:31:10;;;;;;;1.10;0.57;;;21.60;79.50;;;;;;4860694;29;20132;-81
2021/08/25 12:33:36;;;;;;;1.38;0.50;;;21.70;79.00;;;;;;4861187;29;20049;-81
2021/08/25 12:36:25;;;;;;;2.00;0.30;;;21.70;78.50;;;;;;4859287;29;20065;-82
2021/08/25 12:38:56;;;;;;;1.52;0.52;;;21.70;77.30;;;;;;4858905;29;20577;-82
2021/08/25 12:41:23;;;;;;;1.67;0.60;;;21.70;79.40;;;;;;4860169;29;20102;-81
2021/08/25 12:43:49;;;;;;;1.30;0.45;;;21.70;77.90;;;;;;4856418;29;20137;-80
2021/08/25 12:46:14;;;;;;;0.88;0.40;;;21.80;78.20;;;;;;4856842;29;20136;-81